Time;durP1;ratioP1;P1;durP2;ratioP2;P2;SDS_P1;SDS_P2;PMS_P1;PMS_P2;Temp;Humidity;BMP_temperature;BMP_pressure;BME280_temperature;BME280_humidity;BME280_pressure;Samples;Min_cycle;Max_cycle;Signal;HPM_P1;HPM_P2
2022/03/14 00:00:01;;;;;;;;;;;;;;;;;;5096402;28;19934;-71
2022/03/14 00:02:27;;;;;;;;;;;;;;;;;;5095892;28;20269;-71
2022/03/14 00:04:54;;;;;;;;;;;;;;;;;;5095069;28;19930;-71
2022/03/14 00:07:20;;;;;;;;;;;;;;;;;;5096260;28;20364;-71
2022/03/14 00:09:46;;;;;;;;;;;;;;;;;;5095769;28;19908;-71
2022/03/14 00:12:23;;;;;;;;;;;;;;;;;;5096124;28;19931;-71
2022/03/14 00:14:53;;;;;;;;;;;;;;;;;;5096524;28;19914;-71
2022/03/14 00:17:19;;;;;;;;;;;;;;;;;;5095705;28;19915;-71
2022/03/14 00:19:47;;;;;;;;;;;;;;;;;;5094750;28;19908;-71
2022/03/14 00:22:15;;;;;;;;;;;;;;;;;;5095715;28;19966;-71
2022/03/14 00:24:41;;;;;;;;;;;;;;;;;;5095670;28;19919;-71
2022/03/14 00:27:07;;;;;;;;;;;;;;;;;;5094638;28;19912;-71
2022/03/14 00:29:33;;;;;;;;;;;;;;;;;;5094611;28;19942;-71
2022/03/14 00:32:00;;;;;;;;;;;;;;;;;;5094127;28;19909;-71
2022/03/14 00:34:27;;;;;;;;;;;;;;;;;;5094495;28;20427;-71
2022/03/14 00:36:53;;;;;;;;;;;;;;;;;;5095742;28;19953;-71
2022/03/14 00:39:19;;;;;;;;;;;;;;;;;;5095252;28;20368;-71
2022/03/14 00:41:45;;;;;;;;;;;;;;;;;;5095765;28;19914;-71
2022/03/14 00:44:14;;;;;;;;;;;;;;;;;;5095823;28;19916;-71
2022/03/14 00:46:40;;;;;;;;;;;;;;;;;;5094239;28;19951;-71
2022/03/14 00:49:06;;;;;;;;;;;;;;;;;;5095587;28;20376;-71
2022/03/14 00:51:34;;;;;;;;;;;;;;;;;;5094981;28;19995;-71
2022/03/14 00:54:00;;;;;;;;;;;;;;;;;;5094086;28;19915;-71
2022/03/14 00:56:27;;;;;;;;;;;;;;;;;;5094075;28;19908;-71
2022/03/14 00:58:53;;;;;;;;;;;;;;;;;;5093532;28;19950;-71
2022/03/14 01:01:19;;;;;;;;;;;;;;;;;;5095230;28;20333;-72
2022/03/14 01:03:46;;;;;;;;;;;;;;;;;;5095059;28;19963;-71
2022/03/14 01:06:12;;;;;;;;;;;;;;;;;;5094539;28;19908;-69
2022/03/14 01:08:38;;;;;;;;;;;;;;;;;;5095085;28;19916;-69
2022/03/14 01:11:04;;;;;;;;;;;;;;;;;;5095035;28;19973;-69
2022/03/14 01:13:30;;;;;;;;;;;;;;;;;;5094581;28;19908;-70
2022/03/14 01:15:57;;;;;;;;;;;;;;;;;;5093636;28;19915;-69
2022/03/14 01:18:23;;;;;;;;;;;;;;;;;;5095047;28;19908;-70
2022/03/14 01:20:49;;;;;;;;;;;;;;;;;;5093168;28;19915;-70
2022/03/14 01:23:15;;;;;;;;;;;;;;;;;;5093242;28;19920;-70
2022/03/14 01:25:42;;;;;;;;;;;;;;;;;;5094761;28;20390;-70
2022/03/14 01:28:08;;;;;;;;;;;;;;;;;;5093000;28;19933;-70
2022/03/14 01:30:35;;;;;;;;;;;;;;;;;;5093411;28;19912;-70
2022/03/14 01:33:01;;;;;;;;;;;;;;;;;;5094622;28;19912;-70
2022/03/14 01:35:27;;;;;;;;;;;;;;;;;;5092845;28;20356;-71
2022/03/14 01:37:54;;;;;;;;;;;;;;;;;;5094587;28;19961;-70
2022/03/14 01:40:20;;;;;;;;;;;;;;;;;;5094447;28;19914;-71
2022/03/14 01:42:46;;;;;;;;;;;;;;;;;;5093942;28;20420;-70
2022/03/14 01:45:14;;;;;;;;;;;;;;;;;;5094762;28;19987;-71
2022/03/14 01:47:42;;;;;;;;;;;;;;;;;;5094042;28;20454;-70
2022/03/14 01:50:08;;;;;;;;;;;;;;;;;;5094454;28;19908;-70
2022/03/14 01:52:34;;;;;;;;;;;;;;;;;;5093107;28;19915;-71
2022/03/14 01:55:00;;;;;;;;;;;;;;;;;;5092559;28;19969;-71
2022/03/14 01:57:26;;;;;;;;;;;;;;;;;;5094265;28;19909;-71
2022/03/14 01:59:52;;;;;;;;;;;;;;;;;;5092916;28;20367;-71
2022/03/14 02:02:18;;;;;;;;;;;;;;;;;;5092351;28;19908;-71
2022/03/14 02:04:44;;;;;;;;;;;;;;;;;;5094157;28;20280;-71
2022/03/14 02:07:10;;;;;;;;;;;;;;;;;;5094140;28;19962;-70
2022/03/14 02:09:36;;;;;;;;;;;;;;;;;;5093814;28;19908;-70
2022/03/14 02:12:02;;;;;;;;;;;;;;;;;;5092855;28;19908;-70
2022/03/14 02:14:28;;;;;;;;;;;;;;;;;;5094320;28;20350;-71
2022/03/14 02:16:54;;;;;;;;;;;;;;;;;;5092253;28;19912;-70
2022/03/14 02:19:21;;;;;;;;;;;;;;;;;;5093823;28;20325;-71
2022/03/14 02:21:47;;;;;;;;;;;;;;;;;;5092525;28;19942;-71
2022/03/14 02:24:13;;;;;;;;;;;;;;;;;;5093472;28;19916;-71
2022/03/14 02:26:39;;;;;;;;;;;;;;;;;;5094413;28;19948;-71
2022/03/14 02:29:05;;;;;;;;;;;;;;;;;;5093895;28;19915;-71
2022/03/14 02:31:31;;;;;;;;;;;;;;;;;;5092148;28;19908;-71
2022/03/14 02:33:57;;;;;;;;;;;;;;;;;;5093827;28;19908;-71
2022/03/14 02:36:23;;;;;;;;;;;;;;;;;;5093774;28;19919;-71
2022/03/14 02:38:49;;;;;;;;;;;;;;;;;;5092097;28;20291;-71
2022/03/14 02:41:15;;;;;;;;;;;;;;;;;;5094043;28;19908;-72
2022/03/14 02:43:41;;;;;;;;;;;;;;;;;;5093638;28;19916;-71
2022/03/14 02:46:08;;;;;;;;;;;;;;;;;;5093369;28;19991;-71
2022/03/14 02:48:36;;;;;;;;;;;;;;;;;;5093847;28;19920;-71
2022/03/14 02:51:02;;;;;;;;;;;;;;;;;;5093298;28;19909;-71
2022/03/14 02:53:28;;;;;;;;;;;;;;;;;;5092325;28;19950;-71
2022/03/14 02:55:55;;;;;;;;;;;;;;;;;;5092229;28;20280;-71
2022/03/14 02:58:21;;;;;;;;;;;;;;;;;;5091841;28;19915;-72
2022/03/14 03:00:47;;;;;;;;;;;;;;;;;;5093804;28;20007;-71
2022/03/14 03:03:13;;;;;;;;;;;;;;;;;;5092121;28;20002;-71
2022/03/14 03:05:43;;;;;;;;;;;;;;;;;;5093159;28;19908;-70
2022/03/14 03:08:09;;;;;;;;;;;;;;;;;;5092216;28;19908;-70
2022/03/14 03:10:35;;;;;;;;;;;;;;;;;;5092156;28;20295;-70
2022/03/14 03:13:01;;;;;;;;;;;;;;;;;;5093108;28;19916;-71
2022/03/14 03:15:27;;;;;;;;;;;;;;;;;;5092142;28;19915;-71
2022/03/14 03:17:53;;;;;;;;;;;;;;;;;;5092130;28;19908;-70
2022/03/14 03:20:19;;;;;;;;;;;;;;;;;;5091679;28;19961;-71
2022/03/14 03:22:45;;;;;;;;;;;;;;;;;;5091773;28;19920;-71
2022/03/14 03:25:11;;;;;;;;;;;;;;;;;;5093372;28;19915;-71
2022/03/14 03:27:37;;;;;;;;;;;;;;;;;;5092955;28;19915;-71
2022/03/14 03:30:03;;;;;;;;;;;;;;;;;;5093850;28;19908;-71
2022/03/14 03:32:30;;;;;;;;;;;;;;;;;;5095700;28;20284;-71
2022/03/14 03:34:56;;;;;;;;;;;;;;;;;;5096529;28;20269;-71
2022/03/14 03:37:22;;;;;;;;;;;;;;;;;;5097057;28;20395;-71
2022/03/14 03:39:48;;;;;;;;;;;;;;;;;;5096925;28;19969;-71
2022/03/14 03:42:13;;;;;;;;;;;;;;;;;;5096294;28;19908;-71
2022/03/14 03:44:39;;;;;;;;;;;;;;;;;;5095489;28;19922;-70
2022/03/14 03:47:06;;;;;;;;;;;;;;;;;;5096280;28;19908;-71
2022/03/14 03:49:31;;;;;;;;;;;;;;;;;;5096727;28;19908;-71
2022/03/14 03:51:57;;;;;;;;;;;;;;;;;;5096649;28;20412;-71
2022/03/14 03:54:23;;;;;;;;;;;;;;;;;;5096308;28;19915;-71
2022/03/14 03:56:49;;;;;;;;;;;;;;;;;;5096486;28;20364;-70
2022/03/14 03:59:15;;;;;;;;;;;;;;;;;;5096762;28;19908;-71
2022/03/14 04:01:43;;;;;;;;;;;;;;;;;;5096062;28;19931;-71
2022/03/14 04:04:09;;;;;;;;;;;;;;;;;;5095030;28;19916;-71
2022/03/14 04:06:36;;;;;;;;;;;;;;;;;;5095028;28;19915;-70
2022/03/14 04:09:03;;;;;;;;;;;;;;;;;;5094569;28;20256;-70
2022/03/14 04:11:29;;;;;;;;;;;;;;;;;;5096446;28;19947;-71
2022/03/14 04:13:58;;;;;;;;;;;;;;;;;;5096150;28;19954;-71
2022/03/14 04:16:24;;;;;;;;;;;;;;;;;;5094369;28;20291;-71
2022/03/14 04:18:50;;;;;;;;;;;;;;;;;;5096057;28;19915;-71
2022/03/14 04:21:16;;;;;;;;;;;;;;;;;;5096478;28;19908;-71
2022/03/14 04:23:42;;;;;;;;;;;;;;;;;;5095279;28;20362;-71
2022/03/14 04:26:09;;;;;;;;;;;;;;;;;;5095897;28;19973;-71
2022/03/14 04:28:36;;;;;;;;;;;;;;;;;;5094522;28;19938;-71
2022/03/14 04:31:02;;;;;;;;;;;;;;;;;;5095424;28;19915;-71
2022/03/14 04:33:28;;;;;;;;;;;;;;;;;;5096032;28;19908;-71
2022/03/14 04:35:54;;;;;;;;;;;;;;;;;;5094523;28;19912;-71
2022/03/14 04:38:20;;;;;;;;;;;;;;;;;;5095273;28;19912;-71
2022/03/14 04:40:46;;;;;;;;;;;;;;;;;;5095598;28;19915;-71
2022/03/14 04:43:12;;;;;;;;;;;;;;;;;;5095751;28;19912;-71
2022/03/14 04:45:40;;;;;;;;;;;;;;;;;;5093836;28;19912;-71
2022/03/14 04:48:06;;;;;;;;;;;;;;;;;;5094193;28;19969;-71
2022/03/14 04:50:32;;;;;;;;;;;;;;;;;;5093853;28;20014;-71
2022/03/14 04:52:58;;;;;;;;;;;;;;;;;;5094082;28;19949;-70
2022/03/14 04:55:24;;;;;;;;;;;;;;;;;;5095427;28;19913;-71
2022/03/14 04:57:50;;;;;;;;;;;;;;;;;;5095081;28;19908;-71
2022/03/14 05:00:17;;;;;;;;;;;;;;;;;;5095266;28;19912;-71
2022/03/14 05:02:43;;;;;;;;;;;;;;;;;;5093822;28;20283;-71
2022/03/14 05:05:11;;;;;;;;;;;;;;;;;;5093513;28;19915;-70
2022/03/14 05:07:37;;;;;;;;;;;;;;;;;;5093855;28;20279;-70
2022/03/14 05:10:03;;;;;;;;;;;;;;;;;;5095118;28;19908;-71
2022/03/14 05:12:29;;;;;;;;;;;;;;;;;;5093404;28;19916;-71
2022/03/14 05:14:55;;;;;;;;;;;;;;;;;;5093816;28;19908;-71
2022/03/14 05:17:21;;;;;;;;;;;;;;;;;;5093788;28;19950;-71
2022/03/14 05:19:47;;;;;;;;;;;;;;;;;;5094536;28;19908;-71
2022/03/14 05:22:13;;;;;;;;;;;;;;;;;;5093345;28;19927;-70
2022/03/14 05:24:39;;;;;;;;;;;;;;;;;;5094706;28;19916;-71
2022/03/14 05:27:06;;;;;;;;;;;;;;;;;;5092974;28;19908;-73
2022/03/14 05:29:32;;;;;;;;;;;;;;;;;;5094727;28;19953;-73
2022/03/14 05:31:58;;;;;;;;;;;;;;;;;;5094741;28;19912;-72
2022/03/14 05:34:24;;;;;;;;;;;;;;;;;;5092899;28;20256;-73
2022/03/14 05:36:50;;;;;;;;;;;;;;;;;;5094855;28;20363;-72
2022/03/14 05:39:16;;;;;;;;;;;;;;;;;;5094768;28;19908;-72
2022/03/14 05:41:42;;;;;;;;;;;;;;;;;;5092807;28;19909;-72
2022/03/14 05:44:08;;;;;;;;;;;;;;;;;;5094474;28;20383;-73
2022/03/14 05:46:34;;;;;;;;;;;;;;;;;;5090822;28;19942;-74
2022/03/14 05:49:01;;;;;;;;;;;;;;;;;;5089385;28;19916;-72
2022/03/14 05:51:27;;;;;;;;;;;;;;;;;;5093347;28;19915;-73
2022/03/14 05:53:53;;;;;;;;;;;;;;;;;;5093096;28;19915;-72
2022/03/14 05:56:19;;;;;;;;;;;;;;;;;;5093590;28;20061;-73
2022/03/14 05:58:45;;;;;;;;;;;;;;;;;;5093955;28;19912;-73
2022/03/14 06:01:11;;;;;;;;;;;;;;;;;;5093937;28;19908;-72
2022/03/14 06:03:37;;;;;;;;;;;;;;;;;;5093909;28;20368;-72
2022/03/14 06:06:03;;;;;;;;;;;;;;;;;;5094186;28;19908;-73
2022/03/14 06:08:29;;;;;;;;;;;;;;;;;;5093683;28;20017;-72
2022/03/14 06:10:55;;;;;;;;;;;;;;;;;;5092446;28;19908;-72
2022/03/14 06:13:22;;;;;;;;;;;;;;;;;;5093729;28;19912;-74
2022/03/14 06:15:48;;;;;;;;;;;;;;;;;;5092117;28;19911;-72
2022/03/14 06:18:14;;;;;;;;;;;;;;;;;;5092470;28;19962;-74
2022/03/14 06:20:40;;;;;;;;;;;;;;;;;;5092194;28;19915;-73
2022/03/14 06:23:06;;;;;;;;;;;;;;;;;;5093635;28;20387;-71
2022/03/14 06:25:32;;;;;;;;;;;;;;;;;;5081120;28;19913;-70
2022/03/14 06:27:58;;;;;;;;;;;;;;;;;;5088415;28;19909;-73
2022/03/14 06:30:24;;;;;;;;;;;;;;;;;;5088897;28;20376;-73
2022/03/14 06:32:51;;;;;;;;;;;;;;;;;;5090540;28;20241;-70
2022/03/14 06:35:17;;;;;;;;;;;;;;;;;;5092651;28;19908;-71
2022/03/14 06:37:43;;;;;;;;;;;;;;;;;;5089468;28;19919;-73
2022/03/14 06:40:09;;;;;;;;;;;;;;;;;;5091430;28;19916;-72
2022/03/14 06:42:41;;;;;;;;;;;;;;;;;;5092363;28;19912;-72
2022/03/14 06:45:07;;;;;;;;;;;;;;;;;;5092389;28;19908;-71
2022/03/14 06:47:34;;;;;;;;;;;;;;;;;;5090835;28;20003;-71
2022/03/14 06:50:00;;;;;;;;;;;;;;;;;;5092748;28;19908;-72
2022/03/14 06:52:26;;;;;;;;;;;;;;;;;;5092558;28;19919;-73
2022/03/14 06:54:52;;;;;;;;;;;;;;;;;;5088090;28;20284;-72
2022/03/14 06:57:18;;;;;;;;;;;;;;;;;;5091182;28;20348;-71
2022/03/14 06:59:45;;;;;;;;;;;;;;;;;;5089229;28;19916;-69
2022/03/14 07:02:11;;;;;;;;;;;;;;;;;;5089033;28;20015;-71
2022/03/14 07:04:37;;;;;;;;;;;;;;;;;;5091064;28;20014;-71
2022/03/14 07:07:04;;;;;;;;;;;;;;;;;;5095728;28;19912;-71
2022/03/14 07:09:30;;;;;;;;;;;;;;;;;;5095003;28;20279;-73
2022/03/14 07:11:56;;;;;;;;;;;;;;;;;;5092915;28;19912;-72
2022/03/14 07:14:22;;;;;;;;;;;;;;;;;;5092826;28;19912;-74
2022/03/14 07:16:48;;;;;;;;;;;;;;;;;;5094453;28;20260;-72
2022/03/14 07:19:14;;;;;;;;;;;;;;;;;;5092265;28;19923;-73
2022/03/14 07:21:40;;;;;;;;;;;;;;;;;;5087849;28;19918;-71
2022/03/14 07:24:06;;;;;;;;;;;;;;;;;;5092184;28;20691;-74
2022/03/14 07:26:32;;;;;;;;;;;;;;;;;;5078932;28;19938;-71
2022/03/14 07:28:59;;;;;;;;;;;;;;;;;;5097271;28;20010;-70
2022/03/14 07:31:25;;;;;;;;;;;;;;;;;;5094450;28;20386;-72
2022/03/14 07:33:51;;;;;;;;;;;;;;;;;;5092456;28;19908;-72
2022/03/14 07:36:17;;;;;;;;;;;;;;;;;;5094861;28;19908;-71
2022/03/14 07:38:43;;;;;;;;;;;;;;;;;;5094198;28;20003;-72
2022/03/14 07:41:10;;;;;;;;;;;;;;;;;;5094060;28;20352;-73
2022/03/14 07:43:36;;;;;;;;;;;;;;;;;;5093918;28;19983;-72
2022/03/14 07:46:02;;;;;;;;;;;;;;;;;;5094410;28;19943;-74
2022/03/14 07:48:28;;;;;;;;;;;;;;;;;;5091854;28;19912;-71
2022/03/14 07:50:54;;;;;;;;;;;;;;;;;;5094308;28;19923;-72
2022/03/14 07:53:20;;;;;;;;;;;;;;;;;;5093443;28;19908;-73
2022/03/14 07:55:47;;;;;;;;;;;;;;;;;;5090849;28;19908;-75
2022/03/14 07:58:13;;;;;;;;;;;;;;;;;;5094041;28;20371;-73
2022/03/14 08:00:39;;;;;;;;;;;;;;;;;;5092285;28;20029;-71
2022/03/14 08:03:05;;;;;;;;;;;;;;;;;;5092688;28;20002;-75
2022/03/14 08:05:31;;;;;;;;;;;;;;;;;;5092565;28;19916;-71
2022/03/14 08:07:59;;;;;;;;;;;;;;;;;;5094251;28;19912;-72
2022/03/14 08:10:26;;;;;;;;;;;;;;;;;;5092891;28;19912;-72
2022/03/14 08:12:52;;;;;;;;;;;;;;;;;;5093540;28;19952;-74
2022/03/14 08:15:19;;;;;;;;;;;;;;;;;;5094214;28;19908;-72
2022/03/14 08:17:45;;;;;;;;;;;;;;;;;;5092247;28;19908;-71
2022/03/14 08:20:11;;;;;;;;;;;;;;;;;;5092529;28;19930;-71
2022/03/14 08:22:37;;;;;;;;;;;;;;;;;;5094363;28;19916;-71
2022/03/14 08:25:03;;;;;;;;;;;;;;;;;;5094892;28;19995;-69
2022/03/14 08:27:29;;;;;;;;;;;;;;;;;;5093482;28;20325;-70
2022/03/14 08:29:55;;;;;;;;;;;;;;;;;;5094486;28;19916;-70
2022/03/14 08:32:21;;;;;;;;;;;;;;;;;;5094107;28;19912;-72
2022/03/14 08:34:48;;;;;;;;;;;;;;;;;;5089388;28;19953;-75
2022/03/14 08:37:14;;;;;;;;;;;;;;;;;;5089608;28;19924;-74
2022/03/14 08:39:40;;;;;;;;;;;;;;;;;;5093471;28;19908;-77
2022/03/14 08:42:07;;;;;;;;;;;;;;;;;;5089646;28;20041;-72
2022/03/14 08:44:33;;;;;;;;;;;;;;;;;;5087767;28;19924;-71
2022/03/14 08:46:59;;;;;;;;;;;;;;;;;;5093833;28;19970;-72
2022/03/14 08:49:25;;;;;;;;;;;;;;;;;;5093244;28;19927;-73
2022/03/14 08:51:51;;;;;;;;;;;;;;;;;;5090381;28;20279;-72
2022/03/14 08:54:17;;;;;;;;;;;;;;;;;;5090886;28;19908;-72
2022/03/14 08:56:43;;;;;;;;;;;;;;;;;;5093423;28;19908;-73
2022/03/14 08:59:11;;;;;;;;;;;;;;;;;;5086321;28;19912;-72
2022/03/14 09:01:38;;;;;;;;;;;;;;;;;;5092795;28;19908;-72
2022/03/14 09:04:04;;;;;;;;;;;;;;;;;;5092126;28;19920;-73
2022/03/14 09:06:30;;;;;;;;;;;;;;;;;;5094276;28;20374;-70
2022/03/14 09:08:56;;;;;;;;;;;;;;;;;;5093687;28;19919;-69
2022/03/14 09:11:24;;;;;;;;;;;;;;;;;;5092230;28;19908;-70
2022/03/14 09:13:50;;;;;;;;;;;;;;;;;;5092399;28;19915;-74
2022/03/14 09:16:17;;;;;;;;;;;;;;;;;;5093028;28;19931;-73
2022/03/14 09:18:44;;;;;;;;;;;;;;;;;;5093086;28;19939;-71
2022/03/14 09:21:12;;;;;;;;;;;;;;;;;;5094167;28;19916;-71
2022/03/14 09:23:39;;;;;;;;;;;;;;;;;;5091242;28;19966;-69
2022/03/14 09:26:05;;;;;;;;;;;;;;;;;;5090838;28;19959;-69
2022/03/14 09:28:31;;;;;;;;;;;;;;;;;;5090408;28;19939;-69
2022/03/14 09:30:58;;;;;;;;;;;;;;;;;;5092176;28;20041;-67
2022/03/14 09:33:24;;;;;;;;;;;;;;;;;;5091946;28;19919;-71
2022/03/14 09:35:50;;;;;;;;;;;;;;;;;;5089652;28;19912;-69
2022/03/14 09:38:17;;;;;;;;;;;;;;;;;;5091352;28;20272;-69
2022/03/14 09:40:43;;;;;;;;;;;;;;;;;;5089828;28;19908;-71
2022/03/14 09:43:09;;;;;;;;;;;;;;;;;;5091875;28;19912;-70
2022/03/14 09:45:35;;;;;;;;;;;;;;;;;;5092690;28;19912;-70
2022/03/14 09:48:01;;;;;;;;;;;;;;;;;;5092640;28;19918;-70
2022/03/14 09:50:27;;;;;;;;;;;;;;;;;;5091289;28;20352;-71
2022/03/14 09:52:53;;;;;;;;;;;;;;;;;;5075106;28;19958;-69
2022/03/14 09:55:19;;;;;;;;;;;;;;;;;;5079928;28;19951;-70
2022/03/14 09:57:45;;;;;;;;;;;;;;;;;;5093593;28;19915;-71
2022/03/14 10:00:14;;;;;;;;;;;;;;;;;;5093191;28;19908;-71
2022/03/14 10:02:40;;;;;;;;;;;;;;;;;;5093481;28;20330;-70
2022/03/14 10:05:08;;;;;;;;;;;;;;;;;;5092181;28;19944;-69
2022/03/14 10:07:34;;;;;;;;;;;;;;;;;;5093223;28;19937;-68
2022/03/14 10:10:39;;;;;;;;;;;;;;;;;;5085613;27;19912;-69
2022/03/14 10:21:05;;;;;;;;;;;;;;;;;;5087693;27;19926;-69
2022/03/14 10:26:07;;;;;;;;;;;;;;;;;;5109781;27;20273;-69
2022/03/14 10:28:35;;;;;;;;;;;;;;;;;;5108188;28;19955;-69
2022/03/14 10:31:01;;;;;;;;;;;;;;;;;;5109516;28;19962;-70
2022/03/14 10:33:30;;;;;;;;;;;;;;;;;;5109257;28;19908;-71
2022/03/14 10:37:13;;;;;;;;;;;;;;;;;;5110862;27;19916;-70
2022/03/14 10:40:41;;;;;;;;;;;;;;;;;;5129974;27;19921;-73
2022/03/14 10:45:24;;;;;;;;;;;;;;;;;;5091071;27;19913;-72
2022/03/14 10:47:52;;;;;;;;;;;;;;;;;;5090326;28;19912;-72
2022/03/14 10:50:18;;;;;;;;;;;;;;;;;;5089766;28;19931;-73
2022/03/14 10:52:44;;;;;;;;;;;;;;;;;;5088827;28;19909;-72
2022/03/14 10:55:31;;;;;;;;;;;;;;;;;;5081059;27;19923;-71
2022/03/14 10:57:57;;;;;;;;;;;;;;;;;;5086474;28;19916;-72
2022/03/14 11:00:23;;;;;;;;;;;;;;;;;;5085943;28;19915;-71
2022/03/14 11:02:49;;;;;;;;;;;;;;;;;;5086730;28;20404;-71
2022/03/14 11:05:15;;;;;;;;;;;;;;;;;;5082414;28;19908;-70
2022/03/14 11:07:43;;;;;;;;;;;;;;;;;;5082725;28;19916;-71
2022/03/14 11:10:09;;;;;;;;;;;;;;;;;;5085546;28;19912;-70
2022/03/14 11:13:16;;;;;;;;;;;;;;;;;;5068182;28;19920;-69
2022/03/14 11:15:42;;;;;;;;;;;;;;;;;;5068680;28;19919;-71
2022/03/14 11:18:08;;;;;;;;;;;;;;;;;;5067387;28;19920;-71
2022/03/14 11:20:34;;;;;;;;;;;;;;;;;;5067490;28;19909;-71
2022/03/14 11:23:00;;;;;;;;;;;;;;;;;;5070107;28;19991;-72
2022/03/14 11:25:26;;;;;;;;;;;;;;;;;;5069861;28;19909;-72
2022/03/14 11:28:50;;;;;;;;;;;;;;;;;;5068517;28;19917;-72
2022/03/14 11:31:16;;;;;;;;;;;;;;;;;;5064427;28;19913;-70
2022/03/14 11:33:43;;;;;;;;;;;;;;;;;;5069353;28;19908;-69
2022/03/14 11:36:09;;;;;;;;;;;;;;;;;;5070059;28;19999;-70
2022/03/14 11:38:35;;;;;;;;;;;;;;;;;;5069324;28;19999;-70
2022/03/14 11:43:27;;;;;;;;;;;;;;;;;;5090364;27;19912;-71
2022/03/14 11:47:24;;;;;;;;;;;;;;;;;;5090153;27;19917;-71
2022/03/14 11:49:51;;;;;;;;;;;;;;;;;;5088564;28;19912;-69
2022/03/14 11:52:21;;;;;;;;;;;;;;;;;;5089932;28;19909;-68
2022/03/14 11:55:06;;;;;;;;;;;;;;;;;;5111016;27;19922;-69
2022/03/14 11:57:32;;;;;;;;;;;;;;;;;;5111133;28;19912;-70
2022/03/14 12:01:04;;;;;;;;;;;;;;;;;;5089799;28;20368;-69
2022/03/14 12:03:30;;;;;;;;;;;;;;;;;;5085401;28;20007;-72
2022/03/14 12:07:45;;;;;;;;;;;;;;;;;;5088618;27;19917;-70
2022/03/14 12:10:11;;;;;;;;;;;;;;;;;;5086163;28;20014;-69
2022/03/14 12:13:42;;;;;;;;;;;;;;;;;;5110680;27;19918;-71
2022/03/14 12:16:08;;;;;;;;;;;;;;;;;;5111048;28;19920;-70
2022/03/14 12:18:34;;;;;;;;;;;;;;;;;;5111255;28;19915;-70
2022/03/14 12:22:53;;;;;;;;;;;;;;;;;;5090209;27;19913;-70
2022/03/14 12:26:22;;;;;;;;;;;;;;;;;;5089913;27;19923;-71
2022/03/14 12:28:48;;;;;;;;;;;;;;;;;;5090387;28;19952;-71
2022/03/14 12:31:14;;;;;;;;;;;;;;;;;;5090047;28;19953;-70
2022/03/14 12:33:40;;;;;;;;;;;;;;;;;;5089447;28;19913;-70
2022/03/14 12:37:13;;;;;;;;;;;;;;;;;;5090532;27;19916;-69
2022/03/14 12:39:39;;;;;;;;;;;;;;;;;;5089866;28;19912;-69
2022/03/14 12:42:07;;;;;;;;;;;;;;;;;;5089047;28;19923;-69
2022/03/14 12:44:33;;;;;;;;;;;;;;;;;;5090554;28;19912;-69
2022/03/14 12:47:00;;;;;;;;;;;;;;;;;;5088490;28;19955;-68
2022/03/14 12:49:26;;;;;;;;;;;;;;;;;;5088788;28;20284;-70
2022/03/14 12:52:30;;;;;;;;;;;;;;;;;;5070369;28;19913;-72
2022/03/14 12:54:56;;;;;;;;;;;;;;;;;;5069641;28;19967;-71
2022/03/14 12:57:22;;;;;;;;;;;;;;;;;;5070151;28;20356;-68
2022/03/14 12:59:48;;;;;;;;;;;;;;;;;;5070420;28;20339;-70
2022/03/14 13:02:57;;;;;;;;;;;;;;;;;;5089235;27;19923;-71
2022/03/14 13:05:23;;;;;;;9.52;5.07;;;;;;;;;;5089301;28;20391;-72
2022/03/14 13:08:02;;;;;;;7.10;3.42;;;;;;;;;;5090147;28;20024;-70
2022/03/14 13:10:48;;;;;;;10.07;4.68;;;;;;;;;;5071049;28;20035;-72
2022/03/14 13:13:23;;;;;;;6.50;3.22;;;;;;;;;;5086575;28;20507;-73
2022/03/14 13:16:02;;;;;;;8.73;4.45;;;;;;;;;;5090391;28;20485;-72
2022/03/14 13:18:28;;;;;;;10.27;4.75;;;;;;;;;;5089924;28;20097;-73
2022/03/14 13:22:58;;;;;;;10.68;4.88;;;;;;;;;;5030467;28;20411;-70
2022/03/14 13:25:34;;;;;;;8.20;4.15;;;;;;;;;;5029895;28;20021;-70
2022/03/14 13:28:00;;;;;;;7.05;3.40;;;;;;;;;;5030292;28;20029;-72
2022/03/14 13:30:46;;;;;;;4.32;2.10;;;;;;;;;;5029133;28;20068;-71
2022/03/14 13:33:24;;;;;;;11.73;6.15;;;;;;;;;;5029929;28;20037;-71
2022/03/14 13:37:43;;;;;;;8.50;4.15;;;;;;;;;;5030435;27;20395;-70
2022/03/14 13:40:20;;;;;;;16.88;8.25;;;;;;;;;;5030092;28;20043;-71
2022/03/14 13:44:17;;;;;;;10.07;4.97;;;;;;;;;;5050209;28;20409;-71
2022/03/14 13:46:53;;;;;;;10.07;6.15;;;;;;;;;;5048673;28;20116;-72
2022/03/14 13:49:21;;;;;;;9.75;4.53;;;;;;;;;;5050453;28;20021;-72
2022/03/14 13:51:51;;;;;;;11.02;6.28;;;;;;;;;;5049689;28;20022;-72
2022/03/14 13:54:22;;;;;;;11.27;7.57;;;;;;;;;;5049786;28;20465;-70
2022/03/14 13:56:49;;;;;;;6.95;3.72;;;;;;;;;;5050241;28;20033;-71
2022/03/14 13:59:27;;;;;;;8.13;4.68;;;;;;;;;;5049682;28;20017;-70
2022/03/14 14:01:54;;;;;;;8.77;4.70;;;;;;;;;;5050018;28;20547;-69
2022/03/14 14:04:39;;;;;;;7.95;4.35;;;;;;;;;;5049826;28;20060;-71
2022/03/14 14:07:21;;;;;;;5.95;3.42;;;;;;;;;;5048471;28;20022;-70
2022/03/14 14:09:47;;;;;;;;;;;;;;;;;;5049847;28;20025;-71
2022/03/14 14:12:16;;;;;;;5.78;3.25;;;;;;;;;;5049250;28;20321;-70
2022/03/14 14:14:47;;;;;;;10.32;4.97;;;;;;;;;;5049107;28;20017;-70
2022/03/14 14:17:13;;;;;;;7.38;3.88;;;;;;;;;;5049381;28;20025;-70
2022/03/14 14:19:58;;;;;;;7.32;3.13;;;;;;;;;;5049408;28;20385;-69
2022/03/14 14:22:43;;;;;;;10.18;5.05;;;;;;;;;;5048924;28;20024;-70
2022/03/14 14:25:12;;;;;;;9.82;4.55;;;;;;;;;;5049823;28;20033;-69
2022/03/14 14:28:38;;;;;;;8.02;3.25;;;;;;;;;;5111012;27;20907;-68
2022/03/14 14:33:02;;;;;;;7.97;4.13;;;;;;;;;;5070829;28;20403;-69
2022/03/14 14:37:08;;;;;;;10.10;5.40;;;;;;;;;;5111617;27;20472;-67
2022/03/14 14:39:36;;;;;;;7.07;3.63;;;;;;;;;;5111156;28;20032;-68
2022/03/14 14:42:08;;;;;;;9.93;5.57;;;;;;;;;;5110609;28;20028;-68
2022/03/14 14:44:35;;;;;;;8.13;4.30;;;;;;;;;;5111199;28;20104;-69
2022/03/14 14:47:02;;;;;;;9.73;6.25;;;;;;;;;;5126839;28;20440;-68
2022/03/14 14:50:57;;;;;;;5.03;3.00;;;;;;;;;;5030876;28;20469;-66
2022/03/14 14:54:13;;;;;;;8.48;4.10;;;;;;;;;;5111144;27;20408;-67
2022/03/14 14:56:39;;;;;;;9.73;5.57;;;;;;;;;;5110809;28;20028;-68
2022/03/14 14:59:05;;;;;;;10.40;5.35;;;;;;;;;;5127055;28;20028;-68
2022/03/14 15:01:32;;;;;;;12.00;7.18;;;;;;;;;;5126942;28;20026;-68
2022/03/14 15:03:58;;;;;;;7.75;4.05;;;;;;;;;;5110615;28;20024;-68
2022/03/14 15:06:24;;;;;;;10.05;4.55;;;;;;;;;;5110752;28;20409;-68
2022/03/14 15:08:50;;;;;;;12.73;7.28;;;;;;;;;;5110764;28;20043;-68
2022/03/14 15:11:17;;;;;;;6.68;3.75;;;;;;;;;;5110247;28;20020;-68
2022/03/14 15:13:43;;;;;;;11.48;6.40;;;;;;;;;;5110820;28;20089;-68
2022/03/14 15:16:09;;;;;;;11.30;5.80;;;;;;;;;;5110761;28;20102;-68
2022/03/14 15:18:35;;;;;;;8.82;4.28;;;;;;;;;;5110314;28;20027;-68
2022/03/14 15:21:02;;;;;;;5.70;3.45;;;;;;;;;;5110691;28;20024;-69
2022/03/14 15:23:28;;;;;;;15.93;6.43;;;;;;;;;;5110605;28;20081;-68
2022/03/14 15:25:54;;;;;;;13.90;8.73;;;;;;;;;;5126631;28;20073;-68
2022/03/14 15:28:21;;;;;;;16.52;8.73;;;;;;;;;;5110502;28;20541;-68
2022/03/14 15:30:48;;;;;;;21.23;10.13;;;;;;;;;;5110106;28;20056;-68
2022/03/14 15:33:14;;;;;;;11.05;6.47;;;;;;;;;;5110414;28;20032;-67
2022/03/14 15:35:41;;;;;;;10.63;5.03;;;;;;;;;;5110397;28;20091;-67
2022/03/14 15:38:10;;;;;;;13.60;6.60;;;;;;;;;;5125677;28;20547;-68
2022/03/14 15:40:36;;;;;;;9.75;5.70;;;;;;;;;;5110363;28;20476;-68
2022/03/14 15:43:02;;;;;;;12.05;7.80;;;;;;;;;;5110216;28;20026;-68
2022/03/14 15:46:30;;;;;;;11.50;6.78;;;;;;;;;;5110914;27;20442;-68
2022/03/14 15:49:23;;;;;;;15.70;9.82;;;;;;;;;;5070889;28;20438;-68
2022/03/14 15:51:50;;;;;;;10.13;5.78;;;;;;;;;;5068899;28;20526;-68
2022/03/14 15:54:28;;;;;;;12.82;7.32;;;;;;;;;;5111144;27;20392;-66
2022/03/14 15:56:55;;;;;;;13.57;7.00;;;;;;;;;;5109634;28;20476;-67
2022/03/14 15:59:24;;;;;;;15.07;9.02;;;;;;;;;;5106966;28;20144;-67
2022/03/14 16:01:50;;;;;;;11.90;8.10;;;;;;;;;;5090754;28;20020;-68
2022/03/14 16:04:17;;;;;;;13.27;8.23;;;;;;;;;;5090591;28;20029;-68
2022/03/14 16:08:58;;;;;;;12.32;7.70;;;;;;;;;;5050865;28;20413;-67
2022/03/14 16:11:24;;;;;;;26.77;13.30;;;;;;;;;;5050550;28;20025;-67
2022/03/14 16:13:50;;;;;;;35.85;17.80;;;;;;;;;;5049940;28;20025;-66
2022/03/14 16:16:17;;;;;;;35.72;15.32;;;;;;;;;;5050270;28;20036;-67
2022/03/14 16:20:54;;;;;;;28.00;15.40;;;;;;;;;;5110914;27;20416;-68
2022/03/14 16:23:20;;;;;;;14.82;9.30;;;;;;;;;;5111057;28;20028;-68
2022/03/14 16:29:24;;;;;;;21.13;13.65;;;;;;;;;;5131724;27;20305;-69
2022/03/14 16:31:52;;;;;;;24.67;13.95;;;;;;;;;;5111021;28;20035;-68
2022/03/14 16:34:19;;;;;;;21.50;14.68;;;;;;;;;;5110247;28;20417;-68
2022/03/14 16:36:46;;;;;;;21.98;14.60;;;;;;;;;;5110756;28;20040;-68
2022/03/14 16:40:50;;;;;;;35.03;21.42;;;;;;;;;;5030987;28;20422;-69
2022/03/14 16:43:16;;;;;;;49.25;32.20;;;;;;;;;;5030642;28;20032;-69
2022/03/14 16:45:42;;;;;;;66.15;43.47;;;;;;;;;;5030575;28;20099;-69
2022/03/14 16:48:31;;;;;;;85.20;47.50;;;;;;;;;;5030623;28;20415;-68
2022/03/14 16:50:58;;;;;;;65.63;40.00;;;;;;;;;;5030695;28;20125;-68
2022/03/14 16:53:26;;;;;;;62.13;36.90;;;;;;;;;;5030608;28;20105;-68
2022/03/14 16:55:52;;;;;;;67.03;40.30;;;;;;;;;;5030277;28;20105;-68
2022/03/14 16:58:19;;;;;;;78.85;42.92;;;;;;;;;;5030560;28;20033;-68
2022/03/14 17:00:45;;;;;;;103.90;53.05;;;;;;;;;;5030655;28;20026;-69
2022/03/14 17:03:11;;;;;;;75.53;43.38;;;;;;;;;;5028766;28;20030;-68